sensor_id;sensor_type;location;lat;lon;timestamp;P1;durP1;ratioP1;P2;durP2;ratioP2
6823;SDS011;58633;49.470;11.004;2023-05-02T00:00:31;13.20;;;10.40;;
6823;SDS011;58633;49.470;11.004;2023-05-02T00:02:57;13.55;;;10.95;;
6823;SDS011;58633;49.470;11.004;2023-05-02T00:05:24;13.02;;;10.70;;
6823;SDS011;58633;49.470;11.004;2023-05-02T00:07:50;16.65;;;10.63;;
6823;SDS011;58633;49.470;11.004;2023-05-02T00:10:16;13.18;;;11.50;;
6823;SDS011;58633;49.470;11.004;2023-05-02T00:12:42;15.57;;;11.45;;
6823;SDS011;58633;49.470;11.004;2023-05-02T00:15:08;16.13;;;11.88;;
6823;SDS011;58633;49.470;11.004;2023-05-02T00:17:34;15.02;;;11.80;;
6823;SDS011;58633;49.470;11.004;2023-05-02T00:20:00;13.35;;;11.35;;
6823;SDS011;58633;49.470;11.004;2023-05-02T00:22:28;13.90;;;11.57;;
6823;SDS011;58633;49.470;11.004;2023-05-02T00:24:57;15.73;;;12.07;;
6823;SDS011;58633;49.470;11.004;2023-05-02T00:27:23;13.68;;;11.23;;
6823;SDS011;58633;49.470;11.004;2023-05-02T00:29:49;15.63;;;11.88;;
6823;SDS011;58633;49.470;11.004;2023-05-02T00:32:16;13.40;;;10.98;;
6823;SDS011;58633;49.470;11.004;2023-05-02T00:34:42;15.32;;;11.05;;
6823;SDS011;58633;49.470;11.004;2023-05-02T00:37:07;15.10;;;11.38;;
6823;SDS011;58633;49.470;11.004;2023-05-02T00:39:33;13.48;;;11.35;;
6823;SDS011;58633;49.470;11.004;2023-05-02T00:41:59;15.27;;;12.00;;
6823;SDS011;58633;49.470;11.004;2023-05-02T00:44:25;12.98;;;11.02;;
6823;SDS011;58633;49.470;11.004;2023-05-02T00:46:52;14.75;;;11.50;;
6823;SDS011;58633;49.470;11.004;2023-05-02T00:49:18;15.90;;;11.35;;
6823;SDS011;58633;49.470;11.004;2023-05-02T00:51:44;14.10;;;10.82;;
6823;SDS011;58633;49.470;11.004;2023-05-02T00:54:10;14.52;;;11.50;;
6823;SDS011;58633;49.470;11.004;2023-05-02T00:56:37;14.32;;;10.82;;
6823;SDS011;58633;49.470;11.004;2023-05-02T00:59:02;15.20;;;11.03;;
6823;SDS011;58633;49.470;11.004;2023-05-02T01:04:43;14.25;;;11.45;;
6823;SDS011;58633;49.470;11.004;2023-05-02T01:10:18;15.68;;;11.32;;
6823;SDS011;58633;49.470;11.004;2023-05-02T01:12:53;16.58;;;11.43;;
6823;SDS011;58633;49.470;11.004;2023-05-02T01:15:35;14.53;;;11.40;;
6823;SDS011;58633;49.470;11.004;2023-05-02T01:18:03;12.83;;;10.47;;
6823;SDS011;58633;49.470;11.004;2023-05-02T01:20:30;12.32;;;10.55;;
6823;SDS011;58633;49.470;11.004;2023-05-02T01:23:02;12.77;;;10.65;;
6823;SDS011;58633;49.470;11.004;2023-05-02T01:25:54;14.52;;;10.73;;
6823;SDS011;58633;49.470;11.004;2023-05-02T01:28:53;14.67;;;10.00;;
6823;SDS011;58633;49.470;11.004;2023-05-02T01:31:32;12.63;;;10.63;;
6823;SDS011;58633;49.470;11.004;2023-05-02T01:34:00;14.37;;;10.77;;
6823;SDS011;58633;49.470;11.004;2023-05-02T01:36:28;14.57;;;10.80;;
6823;SDS011;58633;49.470;11.004;2023-05-02T01:38:56;13.70;;;10.73;;
6823;SDS011;58633;49.470;11.004;2023-05-02T01:41:26;13.30;;;10.50;;
6823;SDS011;58633;49.470;11.004;2023-05-02T01:43:55;11.57;;;9.97;;
6823;SDS011;58633;49.470;11.004;2023-05-02T01:46:24;13.47;;;10.67;;
6823;SDS011;58633;49.470;11.004;2023-05-02T01:48:52;14.43;;;10.93;;
6823;SDS011;58633;49.470;11.004;2023-05-02T01:51:19;13.70;;;11.03;;
6823;SDS011;58633;49.470;11.004;2023-05-02T01:53:47;13.00;;;10.53;;
6823;SDS011;58633;49.470;11.004;2023-05-02T01:56:14;13.27;;;10.37;;
6823;SDS011;58633;49.470;11.004;2023-05-02T01:58:42;14.53;;;10.50;;
6823;SDS011;58633;49.470;11.004;2023-05-02T02:01:10;12.93;;;10.60;;
6823;SDS011;58633;49.470;11.004;2023-05-02T02:03:37;13.00;;;10.57;;
6823;SDS011;58633;49.470;11.004;2023-05-02T02:06:02;13.23;;;10.13;;
6823;SDS011;58633;49.470;11.004;2023-05-02T02:08:30;12.97;;;10.10;;
6823;SDS011;58633;49.470;11.004;2023-05-02T02:10:56;13.23;;;11.13;;
6823;SDS011;58633;49.470;11.004;2023-05-02T02:13:26;13.90;;;10.63;;
6823;SDS011;58633;49.470;11.004;2023-05-02T02:15:58;14.50;;;10.50;;
6823;SDS011;58633;49.470;11.004;2023-05-02T02:18:28;14.53;;;10.47;;
6823;SDS011;58633;49.470;11.004;2023-05-02T02:20:56;12.77;;;10.57;;
6823;SDS011;58633;49.470;11.004;2023-05-02T02:23:24;13.70;;;10.67;;
6823;SDS011;58633;49.470;11.004;2023-05-02T02:25:52;12.07;;;10.37;;
6823;SDS011;58633;49.470;11.004;2023-05-02T02:28:19;15.00;;;10.57;;
6823;SDS011;58633;49.470;11.004;2023-05-02T02:30:45;14.63;;;10.90;;
6823;SDS011;58633;49.470;11.004;2023-05-02T02:33:10;13.57;;;11.30;;
6823;SDS011;58633;49.470;11.004;2023-05-02T02:35:36;13.83;;;10.77;;
6823;SDS011;58633;49.470;11.004;2023-05-02T02:40:48;14.10;;;10.60;;
6823;SDS011;58633;49.470;11.004;2023-05-02T02:43:23;13.50;;;10.63;;
6823;SDS011;58633;49.470;11.004;2023-05-02T02:46:02;13.80;;;10.83;;
6823;SDS011;58633;49.470;11.004;2023-05-02T02:48:48;12.47;;;10.53;;
6823;SDS011;58633;49.470;11.004;2023-05-02T02:51:37;12.93;;;10.50;;
6823;SDS011;58633;49.470;11.004;2023-05-02T02:57:12;14.57;;;11.20;;
6823;SDS011;58633;49.470;11.004;2023-05-02T02:59:56;15.27;;;10.67;;
6823;SDS011;58633;49.470;11.004;2023-05-02T03:02:28;12.70;;;10.80;;
6823;SDS011;58633;49.470;11.004;2023-05-02T03:04:56;13.47;;;11.03;;
6823;SDS011;58633;49.470;11.004;2023-05-02T03:07:23;13.23;;;11.13;;
6823;SDS011;58633;49.470;11.004;2023-05-02T03:09:51;14.67;;;10.87;;
6823;SDS011;58633;49.470;11.004;2023-05-02T03:12:16;12.83;;;10.97;;
6823;SDS011;58633;49.470;11.004;2023-05-02T03:14:42;15.47;;;10.80;;
6823;SDS011;58633;49.470;11.004;2023-05-02T03:17:08;13.23;;;10.80;;
6823;SDS011;58633;49.470;11.004;2023-05-02T03:19:34;13.47;;;10.60;;
6823;SDS011;58633;49.470;11.004;2023-05-02T03:22:01;14.07;;;10.20;;
6823;SDS011;58633;49.470;11.004;2023-05-02T03:24:26;13.53;;;10.93;;
6823;SDS011;58633;49.470;11.004;2023-05-02T03:26:55;13.43;;;11.20;;
6823;SDS011;58633;49.470;11.004;2023-05-02T03:29:23;16.40;;;11.67;;
6823;SDS011;58633;49.470;11.004;2023-05-02T03:31:48;13.77;;;11.30;;
6823;SDS011;58633;49.470;11.004;2023-05-02T03:34:14;13.30;;;10.90;;
6823;SDS011;58633;49.470;11.004;2023-05-02T03:36:40;13.17;;;10.43;;
6823;SDS011;58633;49.470;11.004;2023-05-02T03:39:06;13.30;;;10.80;;
6823;SDS011;58633;49.470;11.004;2023-05-02T03:41:31;15.80;;;11.60;;
6823;SDS011;58633;49.470;11.004;2023-05-02T03:43:57;15.60;;;11.30;;
6823;SDS011;58633;49.470;11.004;2023-05-02T03:46:22;14.33;;;11.10;;
6823;SDS011;58633;49.470;11.004;2023-05-02T03:48:49;16.53;;;12.17;;
6823;SDS011;58633;49.470;11.004;2023-05-02T03:51:14;13.60;;;10.73;;
6823;SDS011;58633;49.470;11.004;2023-05-02T03:53:40;12.90;;;11.10;;
6823;SDS011;58633;49.470;11.004;2023-05-02T03:56:05;13.70;;;11.10;;
6823;SDS011;58633;49.470;11.004;2023-05-02T03:58:32;14.73;;;10.77;;
6823;SDS011;58633;49.470;11.004;2023-05-02T04:01:00;15.97;;;11.40;;
6823;SDS011;58633;49.470;11.004;2023-05-02T04:03:25;14.33;;;11.30;;
6823;SDS011;58633;49.470;11.004;2023-05-02T04:05:52;15.07;;;10.77;;
6823;SDS011;58633;49.470;11.004;2023-05-02T04:08:18;13.83;;;10.33;;
6823;SDS011;58633;49.470;11.004;2023-05-02T04:10:44;14.97;;;10.67;;
6823;SDS011;58633;49.470;11.004;2023-05-02T04:13:10;13.73;;;10.70;;
6823;SDS011;58633;49.470;11.004;2023-05-02T04:15:36;13.87;;;10.30;;
6823;SDS011;58633;49.470;11.004;2023-05-02T04:18:01;14.50;;;10.90;;
6823;SDS011;58633;49.470;11.004;2023-05-02T04:20:27;13.90;;;10.63;;
6823;SDS011;58633;49.470;11.004;2023-05-02T04:22:53;13.77;;;10.23;;
6823;SDS011;58633;49.470;11.004;2023-05-02T04:25:19;13.30;;;10.50;;
6823;SDS011;58633;49.470;11.004;2023-05-02T04:27:45;17.33;;;10.87;;
6823;SDS011;58633;49.470;11.004;2023-05-02T04:30:11;13.00;;;10.90;;
6823;SDS011;58633;49.470;11.004;2023-05-02T04:32:37;12.90;;;10.27;;
6823;SDS011;58633;49.470;11.004;2023-05-02T04:35:03;13.90;;;10.77;;
6823;SDS011;58633;49.470;11.004;2023-05-02T04:37:29;13.33;;;10.50;;
6823;SDS011;58633;49.470;11.004;2023-05-02T04:39:55;12.27;;;10.33;;
6823;SDS011;58633;49.470;11.004;2023-05-02T04:42:22;13.33;;;10.70;;
6823;SDS011;58633;49.470;11.004;2023-05-02T04:44:48;14.70;;;10.37;;
6823;SDS011;58633;49.470;11.004;2023-05-02T04:47:14;12.90;;;9.93;;
6823;SDS011;58633;49.470;11.004;2023-05-02T04:49:39;13.27;;;9.97;;
6823;SDS011;58633;49.470;11.004;2023-05-02T04:52:05;14.03;;;10.67;;
6823;SDS011;58633;49.470;11.004;2023-05-02T04:54:31;12.87;;;10.50;;
6823;SDS011;58633;49.470;11.004;2023-05-02T04:56:58;15.63;;;10.83;;
6823;SDS011;58633;49.470;11.004;2023-05-02T04:59:23;13.93;;;10.77;;
6823;SDS011;58633;49.470;11.004;2023-05-02T05:01:49;13.17;;;10.63;;
6823;SDS011;58633;49.470;11.004;2023-05-02T05:04:15;12.43;;;10.07;;
6823;SDS011;58633;49.470;11.004;2023-05-02T05:06:40;14.63;;;10.67;;
6823;SDS011;58633;49.470;11.004;2023-05-02T05:09:06;14.17;;;10.67;;
6823;SDS011;58633;49.470;11.004;2023-05-02T05:11:32;14.13;;;10.33;;
6823;SDS011;58633;49.470;11.004;2023-05-02T05:13:58;11.87;;;10.00;;
6823;SDS011;58633;49.470;11.004;2023-05-02T05:16:24;13.47;;;10.33;;
6823;SDS011;58633;49.470;11.004;2023-05-02T05:18:50;14.00;;;10.57;;
6823;SDS011;58633;49.470;11.004;2023-05-02T05:21:17;16.07;;;11.10;;
6823;SDS011;58633;49.470;11.004;2023-05-02T05:23:43;15.80;;;11.67;;
6823;SDS011;58633;49.470;11.004;2023-05-02T05:26:13;13.33;;;11.33;;
6823;SDS011;58633;49.470;11.004;2023-05-02T05:28:40;16.17;;;11.37;;
6823;SDS011;58633;49.470;11.004;2023-05-02T05:31:07;15.27;;;11.43;;
6823;SDS011;58633;49.470;11.004;2023-05-02T05:33:35;13.47;;;10.83;;
6823;SDS011;58633;49.470;11.004;2023-05-02T05:38:30;13.20;;;10.93;;
6823;SDS011;58633;49.470;11.004;2023-05-02T05:40:56;13.27;;;11.00;;
6823;SDS011;58633;49.470;11.004;2023-05-02T05:43:22;13.17;;;10.83;;
6823;SDS011;58633;49.470;11.004;2023-05-02T05:45:50;12.17;;;10.10;;
6823;SDS011;58633;49.470;11.004;2023-05-02T05:48:16;14.10;;;11.33;;
6823;SDS011;58633;49.470;11.004;2023-05-02T05:50:42;14.03;;;10.33;;
6823;SDS011;58633;49.470;11.004;2023-05-02T05:53:07;14.80;;;11.03;;
6823;SDS011;58633;49.470;11.004;2023-05-02T05:55:33;11.63;;;10.00;;
6823;SDS011;58633;49.470;11.004;2023-05-02T05:57:58;13.40;;;10.47;;
6823;SDS011;58633;49.470;11.004;2023-05-02T06:00:24;14.43;;;11.37;;
6823;SDS011;58633;49.470;11.004;2023-05-02T06:02:49;15.97;;;11.60;;
6823;SDS011;58633;49.470;11.004;2023-05-02T06:05:15;15.25;;;10.70;;
6823;SDS011;58633;49.470;11.004;2023-05-02T06:07:41;15.07;;;10.20;;
6823;SDS011;58633;49.470;11.004;2023-05-02T06:10:07;13.90;;;10.90;;
6823;SDS011;58633;49.470;11.004;2023-05-02T06:12:33;14.90;;;11.52;;
6823;SDS011;58633;49.470;11.004;2023-05-02T06:14:59;14.02;;;11.02;;
6823;SDS011;58633;49.470;11.004;2023-05-02T06:17:25;13.37;;;11.20;;
6823;SDS011;58633;49.470;11.004;2023-05-02T06:19:51;15.23;;;11.27;;
6823;SDS011;58633;49.470;11.004;2023-05-02T06:22:16;14.15;;;11.75;;
6823;SDS011;58633;49.470;11.004;2023-05-02T06:24:42;14.43;;;11.52;;
6823;SDS011;58633;49.470;11.004;2023-05-02T06:27:08;13.25;;;10.50;;
6823;SDS011;58633;49.470;11.004;2023-05-02T06:29:33;13.25;;;10.85;;
6823;SDS011;58633;49.470;11.004;2023-05-02T06:31:59;14.30;;;11.38;;
6823;SDS011;58633;49.470;11.004;2023-05-02T06:34:24;15.02;;;11.27;;
6823;SDS011;58633;49.470;11.004;2023-05-02T06:36:53;13.77;;;11.02;;
6823;SDS011;58633;49.470;11.004;2023-05-02T06:39:22;15.27;;;11.35;;
6823;SDS011;58633;49.470;11.004;2023-05-02T06:41:48;13.13;;;11.02;;
6823;SDS011;58633;49.470;11.004;2023-05-02T06:44:13;15.65;;;11.73;;
6823;SDS011;58633;49.470;11.004;2023-05-02T06:46:39;16.08;;;11.43;;
6823;SDS011;58633;49.470;11.004;2023-05-02T06:49:05;16.35;;;10.98;;
6823;SDS011;58633;49.470;11.004;2023-05-02T06:51:30;14.48;;;10.98;;
6823;SDS011;58633;49.470;11.004;2023-05-02T06:53:56;16.48;;;11.18;;
6823;SDS011;58633;49.470;11.004;2023-05-02T06:56:22;14.48;;;10.88;;
6823;SDS011;58633;49.470;11.004;2023-05-02T06:58:51;13.55;;;10.95;;
6823;SDS011;58633;49.470;11.004;2023-05-02T07:01:17;13.43;;;10.73;;
6823;SDS011;58633;49.470;11.004;2023-05-02T07:03:43;19.65;;;11.18;;
6823;SDS011;58633;49.470;11.004;2023-05-02T07:06:09;15.95;;;11.25;;
6823;SDS011;58633;49.470;11.004;2023-05-02T07:08:35;14.05;;;11.05;;
6823;SDS011;58633;49.470;11.004;2023-05-02T07:11:01;15.40;;;12.48;;
6823;SDS011;58633;49.470;11.004;2023-05-02T07:13:26;16.35;;;12.07;;
6823;SDS011;58633;49.470;11.004;2023-05-02T07:15:52;15.90;;;11.63;;
6823;SDS011;58633;49.470;11.004;2023-05-02T07:18:18;14.48;;;10.52;;
6823;SDS011;58633;49.470;11.004;2023-05-02T07:20:43;14.50;;;11.60;;
6823;SDS011;58633;49.470;11.004;2023-05-02T07:23:09;16.88;;;11.20;;
6823;SDS011;58633;49.470;11.004;2023-05-02T07:25:35;14.63;;;11.20;;
6823;SDS011;58633;49.470;11.004;2023-05-02T07:28:01;15.98;;;11.60;;
6823;SDS011;58633;49.470;11.004;2023-05-02T07:30:26;19.02;;;12.18;;
6823;SDS011;58633;49.470;11.004;2023-05-02T07:32:52;27.92;;;17.13;;
6823;SDS011;58633;49.470;11.004;2023-05-02T07:35:17;14.95;;;10.73;;
6823;SDS011;58633;49.470;11.004;2023-05-02T07:37:43;18.75;;;14.32;;
6823;SDS011;58633;49.470;11.004;2023-05-02T07:40:09;22.13;;;15.15;;
6823;SDS011;58633;49.470;11.004;2023-05-02T07:42:35;12.77;;;11.38;;
6823;SDS011;58633;49.470;11.004;2023-05-02T07:45:00;12.30;;;11.00;;
6823;SDS011;58633;49.470;11.004;2023-05-02T07:47:26;13.80;;;11.02;;
6823;SDS011;58633;49.470;11.004;2023-05-02T07:49:52;11.10;;;9.85;;
6823;SDS011;58633;49.470;11.004;2023-05-02T07:52:19;13.68;;;10.65;;
6823;SDS011;58633;49.470;11.004;2023-05-02T07:54:46;14.13;;;10.93;;
6823;SDS011;58633;49.470;11.004;2023-05-02T07:57:13;15.32;;;10.88;;
6823;SDS011;58633;49.470;11.004;2023-05-02T07:59:39;16.63;;;11.93;;
6823;SDS011;58633;49.470;11.004;2023-05-02T08:02:04;13.30;;;11.07;;
6823;SDS011;58633;49.470;11.004;2023-05-02T08:04:30;18.20;;;11.65;;
6823;SDS011;58633;49.470;11.004;2023-05-02T08:06:55;12.65;;;10.68;;
6823;SDS011;58633;49.470;11.004;2023-05-02T08:09:21;14.77;;;10.77;;
6823;SDS011;58633;49.470;11.004;2023-05-02T08:11:47;12.90;;;10.93;;
6823;SDS011;58633;49.470;11.004;2023-05-02T08:14:13;12.80;;;9.85;;
6823;SDS011;58633;49.470;11.004;2023-05-02T08:16:40;13.35;;;10.13;;
6823;SDS011;58633;49.470;11.004;2023-05-02T08:19:05;11.68;;;10.10;;
6823;SDS011;58633;49.470;11.004;2023-05-02T08:21:31;11.43;;;10.23;;
6823;SDS011;58633;49.470;11.004;2023-05-02T08:23:57;13.50;;;10.82;;
6823;SDS011;58633;49.470;11.004;2023-05-02T08:26:23;11.05;;;9.50;;
6823;SDS011;58633;49.470;11.004;2023-05-02T08:28:52;12.90;;;10.25;;
6823;SDS011;58633;49.470;11.004;2023-05-02T08:31:18;11.52;;;9.82;;
6823;SDS011;58633;49.470;11.004;2023-05-02T08:33:43;10.70;;;9.60;;
6823;SDS011;58633;49.470;11.004;2023-05-02T08:36:10;12.48;;;9.88;;
6823;SDS011;58633;49.470;11.004;2023-05-02T08:38:36;13.05;;;9.65;;
6823;SDS011;58633;49.470;11.004;2023-05-02T08:41:02;9.57;;;8.43;;
6823;SDS011;58633;49.470;11.004;2023-05-02T08:43:33;10.68;;;9.07;;
6823;SDS011;58633;49.470;11.004;2023-05-02T08:45:59;10.63;;;9.35;;
6823;SDS011;58633;49.470;11.004;2023-05-02T08:48:29;9.82;;;8.82;;
6823;SDS011;58633;49.470;11.004;2023-05-02T08:50:55;10.50;;;9.00;;
6823;SDS011;58633;49.470;11.004;2023-05-02T08:53:23;9.98;;;8.82;;
6823;SDS011;58633;49.470;11.004;2023-05-02T08:55:49;8.98;;;8.13;;
6823;SDS011;58633;49.470;11.004;2023-05-02T08:58:15;8.55;;;7.47;;
6823;SDS011;58633;49.470;11.004;2023-05-02T09:00:41;9.13;;;7.65;;
6823;SDS011;58633;49.470;11.004;2023-05-02T09:03:18;8.65;;;7.75;;
6823;SDS011;58633;49.470;11.004;2023-05-02T09:05:52;8.82;;;7.97;;
6823;SDS011;58633;49.470;11.004;2023-05-02T09:08:22;10.15;;;8.15;;
6823;SDS011;58633;49.470;11.004;2023-05-02T09:10:48;10.20;;;8.57;;
6823;SDS011;58633;49.470;11.004;2023-05-02T09:13:31;9.70;;;8.07;;
6823;SDS011;58633;49.470;11.004;2023-05-02T09:16:04;8.80;;;7.90;;
6823;SDS011;58633;49.470;11.004;2023-05-02T09:18:37;10.07;;;8.32;;
6823;SDS011;58633;49.470;11.004;2023-05-02T09:21:08;8.73;;;7.70;;
6823;SDS011;58633;49.470;11.004;2023-05-02T09:23:39;8.90;;;7.82;;
6823;SDS011;58633;49.470;11.004;2023-05-02T09:26:25;9.45;;;7.30;;
6823;SDS011;58633;49.470;11.004;2023-05-02T09:28:55;8.20;;;7.43;;
6823;SDS011;58633;49.470;11.004;2023-05-02T09:31:22;9.30;;;7.75;;
6823;SDS011;58633;49.470;11.004;2023-05-02T09:33:52;8.48;;;7.55;;
6823;SDS011;58633;49.470;11.004;2023-05-02T09:36:18;8.90;;;7.80;;
6823;SDS011;58633;49.470;11.004;2023-05-02T09:38:46;8.80;;;7.90;;
6823;SDS011;58633;49.470;11.004;2023-05-02T09:41:13;8.55;;;7.65;;
6823;SDS011;58633;49.470;11.004;2023-05-02T09:43:39;8.13;;;7.32;;
6823;SDS011;58633;49.470;11.004;2023-05-02T09:46:06;8.73;;;7.32;;
6823;SDS011;58633;49.470;11.004;2023-05-02T09:48:32;8.10;;;7.30;;
6823;SDS011;58633;49.470;11.004;2023-05-02T09:51:16;7.53;;;6.82;;
6823;SDS011;58633;49.470;11.004;2023-05-02T09:53:42;11.20;;;8.40;;
6823;SDS011;58633;49.470;11.004;2023-05-02T09:56:09;8.65;;;7.75;;
6823;SDS011;58633;49.470;11.004;2023-05-02T09:58:35;9.70;;;8.35;;
6823;SDS011;58633;49.470;11.004;2023-05-02T10:01:00;8.40;;;7.60;;
6823;SDS011;58633;49.470;11.004;2023-05-02T10:03:27;8.82;;;7.38;;
6823;SDS011;58633;49.470;11.004;2023-05-02T10:05:53;11.00;;;8.40;;
6823;SDS011;58633;49.470;11.004;2023-05-02T10:08:20;8.68;;;7.78;;
6823;SDS011;58633;49.470;11.004;2023-05-02T10:10:56;8.98;;;8.07;;
6823;SDS011;58633;49.470;11.004;2023-05-02T10:13:26;8.90;;;8.00;;
6823;SDS011;58633;49.470;11.004;2023-05-02T10:15:58;8.70;;;7.80;;
6823;SDS011;58633;49.470;11.004;2023-05-02T10:18:37;8.82;;;7.85;;
6823;SDS011;58633;49.470;11.004;2023-05-02T10:21:24;7.50;;;6.80;;
6823;SDS011;58633;49.470;11.004;2023-05-02T10:23:53;8.70;;;7.80;;
6823;SDS011;58633;49.470;11.004;2023-05-02T10:26:19;8.70;;;6.97;;
6823;SDS011;58633;49.470;11.004;2023-05-02T10:28:45;8.45;;;6.82;;
6823;SDS011;58633;49.470;11.004;2023-05-02T10:31:12;8.93;;;7.00;;
6823;SDS011;58633;49.470;11.004;2023-05-02T10:33:38;7.60;;;6.90;;
6823;SDS011;58633;49.470;11.004;2023-05-02T10:36:06;8.45;;;7.10;;
6823;SDS011;58633;49.470;11.004;2023-05-02T10:38:33;16.15;;;11.60;;
6823;SDS011;58633;49.470;11.004;2023-05-02T10:41:02;8.27;;;7.03;;
6823;SDS011;58633;49.470;11.004;2023-05-02T10:43:34;8.82;;;7.45;;
6823;SDS011;58633;49.470;11.004;2023-05-02T10:46:01;22.48;;;15.15;;
6823;SDS011;58633;49.470;11.004;2023-05-02T10:48:27;7.72;;;6.90;;
6823;SDS011;58633;49.470;11.004;2023-05-02T10:51:00;7.45;;;6.75;;
6823;SDS011;58633;49.470;11.004;2023-05-02T10:53:32;9.43;;;7.18;;
6823;SDS011;58633;49.470;11.004;2023-05-02T10:56:10;8.30;;;6.78;;
6823;SDS011;58633;49.470;11.004;2023-05-02T10:58:45;10.68;;;7.68;;
6823;SDS011;58633;49.470;11.004;2023-05-02T11:03:54;10.85;;;8.65;;
6823;SDS011;58633;49.470;11.004;2023-05-02T11:06:37;9.73;;;7.63;;
6823;SDS011;58633;49.470;11.004;2023-05-02T11:09:38;6.95;;;6.25;;
6823;SDS011;58633;49.470;11.004;2023-05-02T11:12:04;8.07;;;6.75;;
6823;SDS011;58633;49.470;11.004;2023-05-02T11:24:44;9.38;;;6.82;;
6823;SDS011;58633;49.470;11.004;2023-05-02T11:30:02;6.22;;;5.63;;
6823;SDS011;58633;49.470;11.004;2023-05-02T11:37:41;6.68;;;5.57;;
6823;SDS011;58633;49.470;11.004;2023-05-02T11:40:10;6.65;;;5.93;;
6823;SDS011;58633;49.470;11.004;2023-05-02T11:42:37;6.57;;;5.78;;
6823;SDS011;58633;49.470;11.004;2023-05-02T11:45:02;13.50;;;9.48;;
6823;SDS011;58633;49.470;11.004;2023-05-02T11:47:31;9.57;;;6.90;;
6823;SDS011;58633;49.470;11.004;2023-05-02T11:49:57;8.20;;;7.22;;
6823;SDS011;58633;49.470;11.004;2023-05-02T11:52:24;10.63;;;8.75;;
6823;SDS011;58633;49.470;11.004;2023-05-02T11:54:52;8.48;;;6.43;;
6823;SDS011;58633;49.470;11.004;2023-05-02T11:57:19;7.82;;;7.03;;
6823;SDS011;58633;49.470;11.004;2023-05-02T11:59:56;8.48;;;7.10;;
6823;SDS011;58633;49.470;11.004;2023-05-02T12:02:40;7.55;;;6.80;;
6823;SDS011;58633;49.470;11.004;2023-05-02T12:05:11;8.02;;;6.93;;
6823;SDS011;58633;49.470;11.004;2023-05-02T12:07:38;7.85;;;7.13;;
6823;SDS011;58633;49.470;11.004;2023-05-02T12:10:06;8.23;;;7.32;;
6823;SDS011;58633;49.470;11.004;2023-05-02T12:12:32;7.63;;;6.45;;
6823;SDS011;58633;49.470;11.004;2023-05-02T12:15:02;4.95;;;4.00;;
6823;SDS011;58633;49.470;11.004;2023-05-02T12:17:29;3.40;;;3.10;;
6823;SDS011;58633;49.470;11.004;2023-05-02T12:19:56;3.72;;;3.22;;
6823;SDS011;58633;49.470;11.004;2023-05-02T12:22:22;6.88;;;5.35;;
6823;SDS011;58633;49.470;11.004;2023-05-02T12:24:49;3.67;;;3.38;;
6823;SDS011;58633;49.470;11.004;2023-05-02T12:27:15;3.78;;;3.15;;
6823;SDS011;58633;49.470;11.004;2023-05-02T12:29:41;2.85;;;2.65;;
6823;SDS011;58633;49.470;11.004;2023-05-02T12:32:09;4.18;;;3.70;;
6823;SDS011;58633;49.470;11.004;2023-05-02T12:34:35;3.60;;;3.30;;
6823;SDS011;58633;49.470;11.004;2023-05-02T12:37:02;2.78;;;2.47;;
6823;SDS011;58633;49.470;11.004;2023-05-02T12:39:35;3.60;;;2.85;;
6823;SDS011;58633;49.470;11.004;2023-05-02T12:42:15;2.90;;;2.70;;
6823;SDS011;58633;49.470;11.004;2023-05-02T12:44:45;3.08;;;2.88;;
6823;SDS011;58633;49.470;11.004;2023-05-02T12:47:13;2.90;;;2.60;;
6823;SDS011;58633;49.470;11.004;2023-05-02T12:52:48;3.90;;;3.60;;
6823;SDS011;58633;49.470;11.004;2023-05-02T12:55:19;3.85;;;3.45;;
6823;SDS011;58633;49.470;11.004;2023-05-02T12:57:48;4.10;;;3.70;;
6823;SDS011;58633;49.470;11.004;2023-05-02T13:00:17;5.45;;;3.33;;
6823;SDS011;58633;49.470;11.004;2023-05-02T13:02:42;3.67;;;3.38;;
6823;SDS011;58633;49.470;11.004;2023-05-02T13:05:15;3.08;;;2.85;;
6823;SDS011;58633;49.470;11.004;2023-05-02T13:07:43;3.50;;;2.97;;
6823;SDS011;58633;49.470;11.004;2023-05-02T13:10:09;2.90;;;2.70;;
6823;SDS011;58633;49.470;11.004;2023-05-02T13:12:36;2.30;;;2.20;;
6823;SDS011;58633;49.470;11.004;2023-05-02T13:15:05;3.08;;;2.25;;
6823;SDS011;58633;49.470;11.004;2023-05-02T13:17:32;2.80;;;2.10;;
6823;SDS011;58633;49.470;11.004;2023-05-02T13:19:58;2.45;;;2.13;;
6823;SDS011;58633;49.470;11.004;2023-05-02T13:22:24;2.40;;;2.20;;
6823;SDS011;58633;49.470;11.004;2023-05-02T13:24:50;2.38;;;2.28;;
6823;SDS011;58633;49.470;11.004;2023-05-02T13:27:16;2.10;;;2.00;;
6823;SDS011;58633;49.470;11.004;2023-05-02T13:29:45;2.35;;;1.80;;
6823;SDS011;58633;49.470;11.004;2023-05-02T13:32:12;2.25;;;1.77;;
6823;SDS011;58633;49.470;11.004;2023-05-02T13:34:38;2.30;;;2.10;;
6823;SDS011;58633;49.470;11.004;2023-05-02T13:37:03;2.10;;;1.90;;
6823;SDS011;58633;49.470;11.004;2023-05-02T13:39:29;2.35;;;2.17;;
6823;SDS011;58633;49.470;11.004;2023-05-02T13:41:54;1.98;;;1.88;;
6823;SDS011;58633;49.470;11.004;2023-05-02T13:44:20;2.20;;;2.10;;
6823;SDS011;58633;49.470;11.004;2023-05-02T13:46:46;2.10;;;2.00;;
6823;SDS011;58633;49.470;11.004;2023-05-02T13:49:11;2.00;;;1.90;;
6823;SDS011;58633;49.470;11.004;2023-05-02T13:51:37;1.95;;;1.85;;
6823;SDS011;58633;49.470;11.004;2023-05-02T13:54:03;1.90;;;1.80;;
6823;SDS011;58633;49.470;11.004;2023-05-02T13:56:28;2.00;;;1.90;;
6823;SDS011;58633;49.470;11.004;2023-05-02T13:58:54;2.55;;;2.10;;
6823;SDS011;58633;49.470;11.004;2023-05-02T14:01:20;2.13;;;2.03;;
6823;SDS011;58633;49.470;11.004;2023-05-02T14:03:45;2.33;;;1.90;;
6823;SDS011;58633;49.470;11.004;2023-05-02T14:06:11;2.53;;;2.03;;
6823;SDS011;58633;49.470;11.004;2023-05-02T14:08:37;2.17;;;1.90;;
6823;SDS011;58633;49.470;11.004;2023-05-02T14:11:02;3.00;;;1.90;;
6823;SDS011;58633;49.470;11.004;2023-05-02T14:13:28;2.50;;;2.30;;
6823;SDS011;58633;49.470;11.004;2023-05-02T14:15:53;1.85;;;1.75;;
6823;SDS011;58633;49.470;11.004;2023-05-02T14:18:19;2.00;;;1.90;;
6823;SDS011;58633;49.470;11.004;2023-05-02T14:20:45;1.70;;;1.60;;
6823;SDS011;58633;49.470;11.004;2023-05-02T14:23:11;1.30;;;1.30;;
6823;SDS011;58633;49.470;11.004;2023-05-02T14:25:36;1.42;;;1.33;;
6823;SDS011;58633;49.470;11.004;2023-05-02T14:28:02;1.50;;;1.40;;
6823;SDS011;58633;49.470;11.004;2023-05-02T14:30:28;2.90;;;1.38;;
6823;SDS011;58633;49.470;11.004;2023-05-02T14:32:55;1.90;;;1.80;;
6823;SDS011;58633;49.470;11.004;2023-05-02T14:35:20;1.77;;;1.67;;
6823;SDS011;58633;49.470;11.004;2023-05-02T14:37:46;1.80;;;1.70;;
6823;SDS011;58633;49.470;11.004;2023-05-02T14:40:12;1.65;;;1.45;;
6823;SDS011;58633;49.470;11.004;2023-05-02T14:42:38;1.60;;;1.50;;
6823;SDS011;58633;49.470;11.004;2023-05-02T14:45:04;1.80;;;1.70;;
6823;SDS011;58633;49.470;11.004;2023-05-02T14:47:31;1.70;;;1.60;;
6823;SDS011;58633;49.470;11.004;2023-05-02T14:49:56;1.60;;;1.50;;
6823;SDS011;58633;49.470;11.004;2023-05-02T14:52:22;1.58;;;1.48;;
6823;SDS011;58633;49.470;11.004;2023-05-02T14:54:47;1.60;;;1.50;;
6823;SDS011;58633;49.470;11.004;2023-05-02T14:57:13;2.65;;;1.40;;
6823;SDS011;58633;49.470;11.004;2023-05-02T14:59:39;1.25;;;1.17;;
6823;SDS011;58633;49.470;11.004;2023-05-02T15:02:05;1.65;;;1.45;;
6823;SDS011;58633;49.470;11.004;2023-05-02T15:04:31;1.73;;;1.40;;
6823;SDS011;58633;49.470;11.004;2023-05-02T15:06:58;3.05;;;1.48;;
6823;SDS011;58633;49.470;11.004;2023-05-02T15:09:24;1.40;;;1.30;;
6823;SDS011;58633;49.470;11.004;2023-05-02T15:11:50;1.40;;;1.30;;
6823;SDS011;58633;49.470;11.004;2023-05-02T15:14:16;0.80;;;0.80;;